createdAt,value
2018-02-13T00:02:05.711Z,2.80
2018-02-13T00:04:33.323Z,3.00
2018-02-13T00:07:00.996Z,3.20
2018-02-13T00:09:28.652Z,3.23
2018-02-13T00:11:56.280Z,3.50
2018-02-13T00:14:24.403Z,4.00
2018-02-13T00:16:52.033Z,3.47
2018-02-13T00:19:19.636Z,3.07
2018-02-13T00:21:47.255Z,4.20
2018-02-13T00:24:14.868Z,3.30
2018-02-13T00:26:42.487Z,5.23
2018-02-13T00:29:10.091Z,4.30
2018-02-13T00:31:37.733Z,3.97
2018-02-13T00:34:05.387Z,5.00
2018-02-13T00:36:32.992Z,5.13
2018-02-13T00:39:00.631Z,5.03
2018-02-13T00:41:28.266Z,4.63
2018-02-13T00:43:55.896Z,4.50
2018-02-13T00:46:23.488Z,4.47
2018-02-13T00:48:51.155Z,4.27
2018-02-13T00:51:18.751Z,4.90
2018-02-13T00:53:46.402Z,5.47
2018-02-13T00:56:14.012Z,5.90
2018-02-13T00:58:41.611Z,5.37
2018-02-13T01:01:09.595Z,5.43
2018-02-13T01:03:37.235Z,5.50
2018-02-13T01:06:04.904Z,6.10
2018-02-13T01:08:32.495Z,5.40
2018-02-13T01:11:00.143Z,5.27
2018-02-13T01:13:27.783Z,5.10
2018-02-13T01:15:55.448Z,5.30
2018-02-13T01:18:23.060Z,5.67
2018-02-13T01:20:50.772Z,6.03
2018-02-13T01:23:18.389Z,5.47
2018-02-13T01:25:46.068Z,5.73
2018-02-13T01:28:13.654Z,5.83
2018-02-13T01:30:41.424Z,6.77
2018-02-13T01:33:09.088Z,7.17
2018-02-13T01:35:36.747Z,6.70
2018-02-13T01:38:04.416Z,6.07
2018-02-13T01:40:32.011Z,6.23
2018-02-13T01:42:59.631Z,5.50
2018-02-13T01:45:27.299Z,5.40
2018-02-13T01:47:54.927Z,6.40
2018-02-13T01:50:26.383Z,5.77
2018-02-13T01:52:54.033Z,6.80
2018-02-13T01:55:21.641Z,6.33
2018-02-13T01:57:49.267Z,6.80
2018-02-13T02:00:16.967Z,6.27
2018-02-13T02:02:44.624Z,6.60
2018-02-13T02:05:12.231Z,6.27
2018-02-13T02:07:39.851Z,5.20
2018-02-13T02:10:07.448Z,6.10
2018-02-13T02:12:35.181Z,6.50
2018-02-13T02:15:02.788Z,7.37
2018-02-13T02:17:30.441Z,6.73
2018-02-13T02:19:58.064Z,6.90
2018-02-13T02:22:25.728Z,6.30
2018-02-13T02:24:53.392Z,8.27
2018-02-13T02:27:21.004Z,7.33
2018-02-13T02:29:48.633Z,7.83
2018-02-13T02:32:16.276Z,7.40
2018-02-13T02:34:43.916Z,8.07
2018-02-13T02:37:11.604Z,7.47
2018-02-13T02:39:39.240Z,6.80
2018-02-13T02:42:06.847Z,8.00
2018-02-13T02:44:34.473Z,8.43
2018-02-13T02:47:02.092Z,8.50
2018-02-13T02:49:29.732Z,7.50
2018-02-13T02:51:57.347Z,7.70
2018-02-13T02:54:24.996Z,7.13
2018-02-13T02:56:52.703Z,7.27
2018-02-13T02:59:20.308Z,7.93
2018-02-13T03:01:48.023Z,8.00
2018-02-13T03:04:15.688Z,8.43
2018-02-13T03:06:43.311Z,6.87
2018-02-13T03:09:11.012Z,7.37
2018-02-13T03:11:38.649Z,7.60
2018-02-13T03:14:06.252Z,8.57
2018-02-13T03:16:33.908Z,8.90
2018-02-13T03:19:01.561Z,9.10
2018-02-13T03:21:29.192Z,9.23
2018-02-13T03:23:56.800Z,8.30
2018-02-13T03:26:24.432Z,9.57
2018-02-13T03:28:52.134Z,9.27
2018-02-13T03:31:19.773Z,10.60
2018-02-13T03:33:47.405Z,9.50
2018-02-13T03:36:15.100Z,10.63
2018-02-13T03:38:42.737Z,9.57
2018-02-13T03:41:10.989Z,10.37
2018-02-13T03:43:38.625Z,10.13
2018-02-13T03:46:06.241Z,10.13
2018-02-13T03:48:33.873Z,11.63
2018-02-13T03:51:01.484Z,11.27
2018-02-13T03:53:29.148Z,9.70
2018-02-13T03:55:56.793Z,11.60
2018-02-13T03:58:24.476Z,11.87
2018-02-13T04:00:52.135Z,12.77
2018-02-13T04:03:19.748Z,12.50
2018-02-13T04:05:47.375Z,12.13
2018-02-13T04:08:14.989Z,13.73
2018-02-13T04:10:42.684Z,13.53
2018-02-13T04:13:10.302Z,12.97
2018-02-13T04:15:38.013Z,13.30
2018-02-13T04:18:05.620Z,12.43
2018-02-13T04:20:33.336Z,12.40
2018-02-13T04:23:01.000Z,13.80
2018-02-13T04:25:28.663Z,12.83
2018-02-13T04:27:56.272Z,12.37
2018-02-13T04:30:23.904Z,13.40
2018-02-13T04:32:51.517Z,12.40
2018-02-13T04:35:19.316Z,13.83
2018-02-13T04:37:46.975Z,13.73
2018-02-13T04:40:14.636Z,13.60
2018-02-13T04:42:42.304Z,13.60
2018-02-13T04:45:09.916Z,12.73
2018-02-13T04:47:37.549Z,15.60
2018-02-13T04:50:05.193Z,13.57
2018-02-13T04:52:32.852Z,14.10
2018-02-13T04:55:00.464Z,13.43
2018-02-13T04:57:28.097Z,12.33
2018-02-13T04:59:55.728Z,15.37
2018-02-13T05:02:23.360Z,13.83
2018-02-13T05:04:50.968Z,15.10
2018-02-13T05:07:18.619Z,15.70
2018-02-13T05:09:46.236Z,13.80
2018-02-13T05:12:13.884Z,14.97
2018-02-13T05:14:41.493Z,13.47
2018-02-13T05:17:09.172Z,14.27
2018-02-13T05:19:36.881Z,15.43
2018-02-13T05:22:04.482Z,14.60
2018-02-13T05:24:32.165Z,15.20
2018-02-13T05:26:59.829Z,16.33
2018-02-13T05:29:27.465Z,16.13
2018-02-13T05:31:55.079Z,13.70
2018-02-13T05:34:22.812Z,13.80
2018-02-13T05:36:50.475Z,14.77
2018-02-13T05:39:18.141Z,16.80
2018-02-13T05:41:45.760Z,15.30
2018-02-13T05:44:13.464Z,15.17
2018-02-13T05:46:41.072Z,15.53
2018-02-13T05:49:08.688Z,17.10
2018-02-13T05:51:36.321Z,16.33
2018-02-13T05:54:04.012Z,18.10
2018-02-13T05:56:31.767Z,17.00
2018-02-13T05:58:59.440Z,16.57
2018-02-13T06:01:27.079Z,17.17
2018-02-13T06:03:54.692Z,15.50
2018-02-13T06:06:22.428Z,17.70
2018-02-13T06:08:50.032Z,16.93
2018-02-13T06:11:17.664Z,17.27
2018-02-13T06:13:45.271Z,16.57
2018-02-13T06:16:12.928Z,17.97
2018-02-13T06:18:40.636Z,17.57
2018-02-13T06:21:08.452Z,17.27
2018-02-13T06:23:36.272Z,18.87
2018-02-13T06:26:03.888Z,20.03
2018-02-13T06:28:31.602Z,17.37
2018-02-13T06:30:59.260Z,20.30
2018-02-13T06:33:27.119Z,17.42
2018-02-13T06:35:54.820Z,19.10
2018-02-13T06:38:22.456Z,18.70
2018-02-13T06:40:50.224Z,20.80
2018-02-13T06:43:17.984Z,18.40
2018-02-13T06:45:45.701Z,19.45
2018-02-13T06:48:13.412Z,20.17
2018-02-13T06:50:41.134Z,19.67
2018-02-13T06:53:08.830Z,20.00
2018-02-13T06:55:36.540Z,19.15
2018-02-13T06:58:04.361Z,20.80
2018-02-13T07:00:32.040Z,19.40
2018-02-13T07:02:59.800Z,20.67
2018-02-13T07:05:27.560Z,20.83
2018-02-13T07:07:55.328Z,21.02
2018-02-13T07:10:23.100Z,19.58
2018-02-13T07:12:50.801Z,20.23
2018-02-13T07:15:18.524Z,21.95
2018-02-13T07:17:46.288Z,20.15
2018-02-13T07:20:13.980Z,20.23
2018-02-13T07:22:41.706Z,16.90
2018-02-13T07:25:09.408Z,22.58
2018-02-13T07:27:37.121Z,20.00
2018-02-13T07:30:04.909Z,20.33
2018-02-13T07:32:32.628Z,21.00
2018-02-13T07:35:00.431Z,19.73
2018-02-13T07:37:28.204Z,21.42
2018-02-13T07:39:55.896Z,19.60
2018-02-13T07:42:23.588Z,18.37
2018-02-13T07:44:51.296Z,20.83
2018-02-13T07:47:18.950Z,22.50
2018-02-13T07:49:46.723Z,20.98
2018-02-13T07:52:14.487Z,21.58
2018-02-13T07:54:42.116Z,19.00
2018-02-13T07:57:09.812Z,20.93
2018-02-13T07:59:38.196Z,24.03
2018-02-13T08:02:05.808Z,23.23
2018-02-13T08:04:33.620Z,19.92
2018-02-13T08:07:01.384Z,22.50
2018-02-13T08:09:29.024Z,22.17
2018-02-13T08:11:56.820Z,24.92
2018-02-13T08:14:24.436Z,22.23
2018-02-13T08:16:52.152Z,23.27
2018-02-13T08:19:19.794Z,23.30
2018-02-13T08:21:47.430Z,21.50
2018-02-13T08:24:15.036Z,23.97
2018-02-13T08:26:42.668Z,24.77
2018-02-13T08:29:10.280Z,23.53
2018-02-13T08:31:37.915Z,24.83
2018-02-13T08:34:05.579Z,23.67
2018-02-13T08:36:33.211Z,24.17
2018-02-13T08:39:00.877Z,24.50
2018-02-13T08:41:28.564Z,24.87
2018-02-13T08:43:56.192Z,24.03
2018-02-13T08:46:23.812Z,23.07
2018-02-13T08:48:51.448Z,25.23
2018-02-13T08:51:19.056Z,26.80
2018-02-13T08:53:46.688Z,24.47
2018-02-13T08:56:14.336Z,24.90
2018-02-13T08:58:41.989Z,23.90
2018-02-13T09:01:09.601Z,24.53
2018-02-13T09:03:37.236Z,25.30
2018-02-13T09:06:04.980Z,23.43
2018-02-13T09:08:32.652Z,24.40
2018-02-13T09:11:00.264Z,25.27
2018-02-13T09:13:27.972Z,26.47
2018-02-13T09:15:55.581Z,23.90
2018-02-13T09:18:23.300Z,21.50
2018-02-13T09:20:50.931Z,22.20
2018-02-13T09:23:18.629Z,24.70
2018-02-13T09:25:46.289Z,22.53
2018-02-13T09:28:13.956Z,24.10
2018-02-13T09:30:41.605Z,23.00
2018-02-13T09:33:09.279Z,26.37
2018-02-13T09:35:36.936Z,24.50
2018-02-13T09:38:04.604Z,22.60
2018-02-13T09:40:32.263Z,24.20
2018-02-13T09:42:59.880Z,25.57
2018-02-13T09:45:27.589Z,26.90
2018-02-13T09:47:55.255Z,22.70
2018-02-13T09:50:22.921Z,24.23
2018-02-13T09:52:50.579Z,24.40
2018-02-13T09:55:18.235Z,23.50
2018-02-13T09:57:45.908Z,22.67
2018-02-13T10:00:13.515Z,24.50
2018-02-13T10:02:41.149Z,23.77
2018-02-13T10:05:08.759Z,21.30
2018-02-13T10:07:36.446Z,25.43
2018-02-13T10:10:04.109Z,21.37
2018-02-13T10:12:31.770Z,22.20
2018-02-13T10:14:59.440Z,24.10
2018-02-13T10:17:27.071Z,20.53
2018-02-13T10:19:54.760Z,21.80
2018-02-13T10:22:22.396Z,21.37
2018-02-13T10:24:50.008Z,22.57
2018-02-13T10:27:17.640Z,22.33
2018-02-13T10:29:45.309Z,21.87
2018-02-13T10:32:12.973Z,21.90
2018-02-13T10:34:40.645Z,19.93
2018-02-13T10:37:08.399Z,20.93
2018-02-13T10:39:36.061Z,20.60
2018-02-13T10:42:03.725Z,23.23
2018-02-13T10:44:31.387Z,20.77
2018-02-13T10:46:59.508Z,21.57
2018-02-13T10:49:27.236Z,22.00
2018-02-13T10:51:54.896Z,20.10
2018-02-13T10:54:22.531Z,22.63
2018-02-13T10:56:50.152Z,20.63
2018-02-13T10:59:17.807Z,21.20
2018-02-13T11:01:45.539Z,21.23
2018-02-13T11:04:13.152Z,20.73
2018-02-13T11:06:40.788Z,23.63
2018-02-13T11:09:08.397Z,22.00
2018-02-13T11:11:36.033Z,21.97
2018-02-13T11:14:03.645Z,21.00
2018-02-13T11:16:31.288Z,21.60
2018-02-13T11:18:59.007Z,19.90
2018-02-13T11:21:26.751Z,21.10
2018-02-13T11:23:54.360Z,20.10
2018-02-13T11:26:21.991Z,22.83
2018-02-13T11:28:49.601Z,20.27
2018-02-13T11:31:17.295Z,20.70
2018-02-13T11:33:44.960Z,20.90
2018-02-13T11:36:12.637Z,20.00
2018-02-13T11:38:40.392Z,21.87
2018-02-13T11:41:08.056Z,19.60
2018-02-13T11:43:35.696Z,18.13
2018-02-13T11:46:03.312Z,18.40
2018-02-13T11:48:30.943Z,19.87
2018-02-13T11:50:58.600Z,18.10
2018-02-13T11:53:26.264Z,18.70
2018-02-13T11:55:53.874Z,20.37
2018-02-13T11:58:21.580Z,18.33
2018-02-13T12:00:49.243Z,16.53
2018-02-13T12:03:16.907Z,19.00
2018-02-13T12:05:44.516Z,17.57
2018-02-13T12:08:12.168Z,17.57
2018-02-13T12:10:39.801Z,17.00
2018-02-13T12:13:07.412Z,16.27
2018-02-13T12:15:35.046Z,17.67
2018-02-13T12:18:02.659Z,16.23
2018-02-13T12:20:30.292Z,15.90
2018-02-13T12:22:58.105Z,15.83
2018-02-13T12:25:37.459Z,15.50
2018-02-13T12:28:05.068Z,14.70
2018-02-13T12:30:32.704Z,15.23
2018-02-13T12:33:00.321Z,14.57
2018-02-13T12:35:27.972Z,16.43
2018-02-13T12:37:55.660Z,16.30
2018-02-13T12:40:23.324Z,15.10
2018-02-13T12:42:50.931Z,14.93
2018-02-13T12:45:18.559Z,16.50
2018-02-13T12:47:46.168Z,16.80
2018-02-13T12:50:13.872Z,15.00
2018-02-13T12:52:41.480Z,13.03
2018-02-13T12:55:09.132Z,15.00
2018-02-13T12:57:36.740Z,15.40
2018-02-13T13:00:04.380Z,14.40
2018-02-13T13:02:32.016Z,14.73
2018-02-13T13:04:59.629Z,13.13
2018-02-13T13:07:27.303Z,13.67
2018-02-13T13:09:54.917Z,13.97
2018-02-13T13:12:22.548Z,12.93
2018-02-13T13:14:50.200Z,13.60
2018-02-13T13:17:17.836Z,14.50
2018-02-13T13:19:45.448Z,13.77
2018-02-13T13:22:13.084Z,13.60
2018-02-13T13:24:40.696Z,11.37
2018-02-13T13:27:08.334Z,12.67
2018-02-13T13:29:35.952Z,13.40
2018-02-13T13:32:03.609Z,13.30
2018-02-13T13:34:31.284Z,12.93
2018-02-13T13:36:59.048Z,12.60
2018-02-13T13:39:26.676Z,11.27
2018-02-13T13:41:54.476Z,12.33
2018-02-13T13:44:22.112Z,12.83
2018-02-13T13:46:49.811Z,11.20
2018-02-13T13:49:17.440Z,12.97
2018-02-13T13:51:45.090Z,12.67
2018-02-13T13:54:12.893Z,11.73
2018-02-13T13:56:40.564Z,11.40
2018-02-13T13:59:08.228Z,10.40
2018-02-13T14:01:35.840Z,12.47
2018-02-13T14:04:03.472Z,10.40
2018-02-13T14:06:31.122Z,11.00
2018-02-13T14:08:58.870Z,10.27
2018-02-13T14:11:26.488Z,10.30
2018-02-13T14:13:54.096Z,10.30
2018-02-13T14:16:21.732Z,10.43
2018-02-13T14:18:49.418Z,10.43
2018-02-13T14:21:17.053Z,8.80
2018-02-13T14:23:44.748Z,9.63
2018-02-13T14:26:12.381Z,9.63
2018-02-13T14:28:40.076Z,9.80
2018-02-13T14:31:07.789Z,8.57
2018-02-13T14:33:35.439Z,8.77
2018-02-13T14:36:03.064Z,8.50
2018-02-13T14:38:30.674Z,10.47
2018-02-13T14:40:58.334Z,9.00
2018-02-13T14:43:26.052Z,9.43
2018-02-13T14:45:53.917Z,10.77
2018-02-13T14:48:21.577Z,9.13
2018-02-13T14:50:49.240Z,8.73
2018-02-13T14:53:16.878Z,8.83
2018-02-13T14:55:44.520Z,9.37
2018-02-13T14:58:12.228Z,11.20
2018-02-13T15:00:39.846Z,10.00
2018-02-13T15:03:07.492Z,9.30
2018-02-13T15:05:35.104Z,8.60
2018-02-13T15:08:02.879Z,8.63
2018-02-13T15:10:30.645Z,8.83
2018-02-13T15:12:58.275Z,8.07
2018-02-13T15:15:26.457Z,7.50
2018-02-13T15:17:59.776Z,7.47
2018-02-13T15:20:27.445Z,8.33
2018-02-13T15:22:55.108Z,7.90
2018-02-13T15:25:22.716Z,8.10
2018-02-13T15:27:50.347Z,7.20
2018-02-13T15:30:17.956Z,9.07
2018-02-13T15:32:45.592Z,10.53
2018-02-13T15:35:13.314Z,7.43
2018-02-13T15:37:40.976Z,8.37
2018-02-13T15:40:10.162Z,8.50
2018-02-13T15:42:37.804Z,9.43
2018-02-13T15:45:05.504Z,8.93
2018-02-13T15:47:36.488Z,7.97
2018-02-13T15:50:04.117Z,7.93
2018-02-13T15:52:31.720Z,7.80
2018-02-13T15:54:59.430Z,7.93
2018-02-13T15:57:27.099Z,7.70
2018-02-13T15:59:54.729Z,8.43
2018-02-13T16:02:22.336Z,8.00
2018-02-13T16:04:49.985Z,9.40
2018-02-13T16:07:17.620Z,7.70
2018-02-13T16:09:45.243Z,8.93
2018-02-13T16:12:12.847Z,8.30
2018-02-13T16:14:40.532Z,9.03
2018-02-13T16:17:08.201Z,19.30
2018-02-13T16:19:35.870Z,18.33
2018-02-13T16:22:03.505Z,20.60
2018-02-13T16:24:31.120Z,15.37
2018-02-13T16:26:58.755Z,13.93
2018-02-13T16:29:26.364Z,11.27
2018-02-13T16:31:53.992Z,9.60
2018-02-13T16:34:21.601Z,10.27
2018-02-13T16:36:49.296Z,11.70
2018-02-13T16:39:16.950Z,12.13
2018-02-13T16:41:44.589Z,11.53
2018-02-13T16:44:12.212Z,11.43
2018-02-13T16:46:39.944Z,10.37
2018-02-13T16:49:07.557Z,8.90
2018-02-13T16:51:35.360Z,9.87
2018-02-13T16:54:02.969Z,8.83
2018-02-13T16:56:30.600Z,8.37
2018-02-13T16:58:58.256Z,6.37
2018-02-13T17:01:25.924Z,8.83
2018-02-13T17:03:53.535Z,9.60
2018-02-13T17:06:21.253Z,7.63
2018-02-13T17:08:48.880Z,9.70
2018-02-13T17:11:16.491Z,9.80
2018-02-13T17:13:44.116Z,8.70
2018-02-13T17:16:11.792Z,8.70
2018-02-13T17:18:39.424Z,6.93
2018-02-13T17:21:07.033Z,7.10
2018-02-13T17:23:34.660Z,8.57
2018-02-13T17:26:02.348Z,7.93
2018-02-13T17:28:29.976Z,9.40
2018-02-13T17:30:57.584Z,13.27
2018-02-13T17:33:25.216Z,14.20
2018-02-13T17:35:52.825Z,11.50
2018-02-13T17:38:20.483Z,12.60
2018-02-13T17:40:48.099Z,11.97
2018-02-13T17:43:15.712Z,10.77
2018-02-13T17:45:43.445Z,11.87
2018-02-13T17:48:11.107Z,11.27
2018-02-13T17:50:38.771Z,12.00
2018-02-13T17:53:06.392Z,11.33
2018-02-13T17:55:34.095Z,11.20
2018-02-13T17:58:01.788Z,10.82
2018-02-13T18:00:29.427Z,12.07
2018-02-13T18:02:57.036Z,12.27
2018-02-13T18:05:24.668Z,11.10
2018-02-13T18:07:52.276Z,11.07
2018-02-13T18:10:19.911Z,11.97
2018-02-13T18:12:47.554Z,11.90
2018-02-13T18:15:15.288Z,13.05
2018-02-13T18:17:42.972Z,13.10
2018-02-13T18:20:10.588Z,14.23
2018-02-13T18:22:38.299Z,15.07
2018-02-13T18:25:06.048Z,15.32
2018-02-13T18:27:33.675Z,18.20
2018-02-13T18:30:01.366Z,17.37
2018-02-13T18:32:29.080Z,16.52
2018-02-13T18:34:56.767Z,17.75
2018-02-13T18:37:24.572Z,15.95
2018-02-13T18:39:52.261Z,17.80
2018-02-13T18:42:19.997Z,14.18
2018-02-13T18:44:47.764Z,12.35
2018-02-13T18:47:15.456Z,14.73
2018-02-13T18:49:43.180Z,14.10
2018-02-13T18:54:38.567Z,12.15
2018-02-13T18:57:06.251Z,12.95
2018-02-13T18:59:34.048Z,12.50
2018-02-13T19:02:01.744Z,9.98
2018-02-13T19:04:29.576Z,12.07
2018-02-13T19:06:57.277Z,11.88
2018-02-13T19:09:24.967Z,12.15
2018-02-13T19:11:52.677Z,10.45
2018-02-13T19:14:20.437Z,11.35
2018-02-13T19:19:15.860Z,10.65
2018-02-13T19:21:43.581Z,10.93
2018-02-13T19:24:11.280Z,11.55
2018-02-13T19:26:39.051Z,13.18
2018-02-13T19:29:06.818Z,11.65
2018-02-13T19:31:34.592Z,11.80
2018-02-13T19:34:02.283Z,11.75
2018-02-13T19:36:30.012Z,12.60
2018-02-13T19:38:57.728Z,12.37
2018-02-13T19:41:25.432Z,12.98
2018-02-13T19:43:53.203Z,12.60
2018-02-13T19:46:21.484Z,12.98
2018-02-13T19:48:49.247Z,13.52
2018-02-13T19:51:16.944Z,13.38
2018-02-13T19:53:44.831Z,12.15
2018-02-13T19:56:12.552Z,13.55
2018-02-13T19:58:40.271Z,13.00
2018-02-13T20:01:08.072Z,13.45
2018-02-13T20:03:35.828Z,13.82
2018-02-13T20:06:03.552Z,12.80
2018-02-13T20:08:31.244Z,14.82
2018-02-13T20:10:58.960Z,14.52
2018-02-13T20:13:26.696Z,14.70
2018-02-13T20:15:54.412Z,14.77
2018-02-13T20:18:22.113Z,15.13
2018-02-13T20:20:49.893Z,15.80
2018-02-13T20:23:17.596Z,21.52
2018-02-13T20:25:45.312Z,21.25
2018-02-13T20:28:13.013Z,19.15
2018-02-13T20:30:40.748Z,20.30
2018-02-13T20:33:08.445Z,18.05
2018-02-13T20:35:36.376Z,17.92
2018-02-13T20:38:04.076Z,17.00
2018-02-13T20:40:31.804Z,18.65
2018-02-13T20:42:59.526Z,18.73
2018-02-13T20:45:27.282Z,18.65
2018-02-13T20:47:55.104Z,17.77
2018-02-13T20:50:22.865Z,19.80
2018-02-13T20:52:50.628Z,21.90
2018-02-13T20:55:18.868Z,18.30
2018-02-13T20:57:46.584Z,18.23
2018-02-13T21:00:14.276Z,18.52
2018-02-13T21:02:42.104Z,15.52
2018-02-13T21:05:09.800Z,14.87
2018-02-13T21:07:37.632Z,15.05
2018-02-13T21:10:05.330Z,13.45
2018-02-13T21:12:33.045Z,15.38
2018-02-13T21:15:00.781Z,14.38
2018-02-13T21:17:28.520Z,14.80
2018-02-13T21:19:56.219Z,13.75
2018-02-13T21:22:24.016Z,13.30
2018-02-13T21:24:51.735Z,13.52
2018-02-13T21:27:19.464Z,12.27
2018-02-13T21:29:47.180Z,12.25
2018-02-13T21:32:14.911Z,14.10
2018-02-13T21:34:42.626Z,12.75
2018-02-13T21:37:10.413Z,12.43
2018-02-13T21:39:38.172Z,12.63
2018-02-13T21:42:05.864Z,12.40
2018-02-13T21:44:33.580Z,11.30
2018-02-13T21:47:01.273Z,11.12
2018-02-13T21:49:29.011Z,11.68
2018-02-13T21:51:56.712Z,11.95
2018-02-13T21:54:24.560Z,11.48
2018-02-13T21:56:52.252Z,13.55
2018-02-13T21:59:19.993Z,12.40
2018-02-13T22:01:47.708Z,11.27
2018-02-13T22:04:15.516Z,12.13
2018-02-13T22:06:43.232Z,11.50
2018-02-13T22:09:10.944Z,11.80
2018-02-13T22:11:38.673Z,12.05
2018-02-13T22:14:06.364Z,12.10
2018-02-13T22:16:34.136Z,12.40
2018-02-13T22:19:01.902Z,11.88
2018-02-13T22:21:29.667Z,10.02
2018-02-13T22:23:57.360Z,11.85
2018-02-13T22:26:25.467Z,11.38
2018-02-13T22:28:53.268Z,11.88
2018-02-13T22:31:20.988Z,11.90
2018-02-13T22:33:48.701Z,11.43
2018-02-13T22:36:16.460Z,11.45
2018-02-13T22:38:44.227Z,12.57
2018-02-13T22:41:11.920Z,11.43
2018-02-13T22:43:39.637Z,11.32
2018-02-13T22:46:07.331Z,12.40
2018-02-13T22:48:35.088Z,11.52
2018-02-13T22:51:02.853Z,11.77
2018-02-13T22:53:30.612Z,13.60
2018-02-13T22:55:58.385Z,14.13
2018-02-13T22:58:26.096Z,16.67
2018-02-13T23:00:53.788Z,18.85
2018-02-13T23:03:21.508Z,17.15
2018-02-13T23:05:49.236Z,17.40
2018-02-13T23:08:17.000Z,18.70
2018-02-13T23:10:44.688Z,19.80
2018-02-13T23:13:12.396Z,18.95
2018-02-13T23:15:40.192Z,17.80
2018-02-13T23:18:07.935Z,16.25
2018-02-13T23:20:35.631Z,16.08
2018-02-13T23:23:03.333Z,17.65
2018-02-13T23:25:31.152Z,13.55
2018-02-13T23:27:58.847Z,14.05
2018-02-13T23:30:26.566Z,14.77
2018-02-13T23:32:54.259Z,13.55
2018-02-13T23:35:22.009Z,15.02
2018-02-13T23:37:49.773Z,15.35
2018-02-13T23:40:17.540Z,13.35
2018-02-13T23:42:45.304Z,13.55
2018-02-13T23:45:13.490Z,12.80
2018-02-13T23:47:41.252Z,14.35
2018-02-13T23:50:09.013Z,12.93
2018-02-13T23:52:36.777Z,13.10
2018-02-13T23:55:04.544Z,14.25
2018-02-13T23:57:32.241Z,14.23
2018-02-13T23:59:59.967Z,15.88
